Welcome to Northern Hawkes Bay. New Zealand.
PWS Header
      nz Flag



Hit Counter


W3C Valid W3C Valid logo


    Wairoa

Select any of the Stations below to visit their websites.










Historic Data from Weather Underground
Select the location of interest below. Wairoa is the default. Please have patience, this Data is slow to load in.
Northern Hawkes Bay Historical Data
Daily Summary for June 21, 2017 Units:  Metric    English   Both
« Previous Day
Next Day »
Daily Weekly Monthly Yearly Custom
  High: Low: Average:
Temperature: 17.0 °C 3.7 °C 8 °C
Dew Point: 10.2 °C 3.6 °C 7 °C
Humidity: 99% 57% 94%
Wind Speed: 15.8km/h 0.0km/h 2.7km/h
Wind Gust: 19.5km/h - -
Wind- - SSW
Pressure: 1025.3 hPa 1014.8 hPa -
Precipitation: 0.3 mm    
Historical Graphs
 
 
Tabular Data for June 21, 2017
Time Temperature Dew Point Pressure Wind Wind Speed Wind Gust Humidity Rainfall Rate (Hourly) solar
00:01 17.0 °C 8.4 °C 1025.3 hPa NE 3.5 km/h 7.2 km/h 57% 0.0 mm 57 W/m2
00:06 16.4 °C 8.6 °C 1024.9 hPa NE 2.6 km/h 7.2 km/h 60% 0.0 mm 35 W/m2
00:11 15.5 °C 8.5 °C 1025.3 hPa NNE 3.5 km/h 7.2 km/h 63% 0.0 mm 27 W/m2
00:16 14.9 °C 8.6 °C 1025.3 hPa NNE 2.6 km/h 8.7 km/h 66% 0.0 mm 20 W/m2
00:21 14.5 °C 8.4 °C 1025.3 hPa NE 2.6 km/h 8.7 km/h 67% 0.0 mm 18 W/m2
00:26 13.8 °C 8.4 °C 1024.9 hPa NE 3.5 km/h 6.1 km/h 70% 0.0 mm 16 W/m2
00:31 13.8 °C 8.8 °C 1024.9 hPa NNE 2.6 km/h 11.1 km/h 72% 0.0 mm 16 W/m2
00:36 14.0 °C 8.6 °C 1024.9 hPa NNE 2.6 km/h 11.1 km/h 70% 0.0 mm 7 W/m2
00:41 13.7 °C 8.7 °C 1024.9 hPa NE 2.6 km/h 5.0 km/h 72% 0.0 mm 4 W/m2
00:46 13.1 °C 8.6 °C 1024.9 hPa NNE 2.6 km/h 3.5 km/h 74% 0.0 mm 2 W/m2
00:51 12.9 °C 8.6 °C 1024.9 hPa NNE 5.0 km/h 6.1 km/h 75% 0.0 mm 0 W/m2
00:56 12.5 °C 8.4 °C 1024.9 hPa NE 6.1 km/h 11.1 km/h 76% 0.0 mm 0 W/m2
01:01 12.4 °C 8.5 °C 1024.9 hPa NE 6.1 km/h 11.1 km/h 77% 0.0 mm 0 W/m2
01:06 12.2 °C 8.5 °C 1024.9 hPa NE 6.1 km/h 8.7 km/h 78% 0.0 mm 0 W/m2
01:11 12.1 °C 8.6 °C 1024.9 hPa NE 5.0 km/h 7.2 km/h 79% 0.0 mm 0 W/m2
01:16 12.0 °C 8.7 °C 1024.9 hPa ENE 3.5 km/h 7.2 km/h 80% 0.0 mm 0 W/m2
01:21 11.8 °C 8.8 °C 1024.9 hPa ENE 5.0 km/h 7.2 km/h 82% 0.0 mm 0 W/m2
01:26 11.7 °C 8.7 °C 1024.9 hPa ENE 3.5 km/h 7.2 km/h 82% 0.0 mm 0 W/m2
01:31 11.6 °C 8.6 °C 1024.9 hPa NE 6.1 km/h 8.7 km/h 82% 0.0 mm 0 W/m2
01:36 11.7 °C 8.7 °C 1024.9 hPa NE 2.6 km/h 8.7 km/h 82% 0.0 mm 0 W/m2
01:40 11.7 °C 8.7 °C 1024.9 hPa NE 6.1 km/h 8.7 km/h 82% 0.0 mm 0 W/m2
01:45 11.6 °C 8.6 °C 1025.3 hPa NE 7.2 km/h 12.2 km/h 82% 0.0 mm 0 W/m2
01:50 11.7 °C 8.9 °C 1024.9 hPa NE 3.5 km/h 12.2 km/h 83% 0.0 mm 0 W/m2
01:55 11.8 °C 8.8 °C 1025.3 hPa NNE 3.5 km/h 12.2 km/h 82% 0.0 mm 0 W/m2
02:00 11.7 °C 8.7 °C 1025.3 hPa NE 8.7 km/h 11.1 km/h 82% 0.0 mm 0 W/m2
02:05 11.8 °C 8.8 °C 1025.3 hPa NE 5.0 km/h 14.8 km/h 82% 0.0 mm 0 W/m2
02:10 11.8 °C 8.8 °C 1025.3 hPa NE 7.2 km/h 14.8 km/h 82% 0.0 mm 0 W/m2
02:15 11.8 °C 8.8 °C 1025.3 hPa NE 15.8 km/h 19.5 km/h 82% 0.0 mm 0 W/m2
02:20 11.9 °C 8.9 °C 1025.3 hPa NE 8.7 km/h 19.5 km/h 82% 0.0 mm 0 W/m2
02:25 11.7 °C 8.6 °C 1025.3 hPa NE 5.0 km/h 19.5 km/h 81% 0.0 mm 0 W/m2
02:30 11.7 °C 8.6 °C 1025.3 hPa ENE 6.1 km/h 18.3 km/h 81% 0.0 mm 0 W/m2
02:35 11.7 °C 8.6 °C 1024.9 hPa NE 7.2 km/h 18.3 km/h 81% 0.0 mm 0 W/m2
02:40 11.7 °C 8.4 °C 1024.9 hPa NNE 5.0 km/h 15.8 km/h 80% 0.0 mm 0 W/m2
02:45 11.7 °C 8.4 °C 1024.9 hPa NNE 3.5 km/h 15.8 km/h 80% 0.0 mm 0 W/m2
02:50 11.6 °C 8.3 °C 1025.3 hPa NNE 3.5 km/h 11.1 km/h 80% 0.0 mm 0 W/m2
02:55 11.5 °C 8.2 °C 1024.9 hPa NNE 3.5 km/h 11.1 km/h 80% 0.0 mm 0 W/m2
03:00 11.4 °C 8.3 °C 1025.3 hPa North 3.5 km/h 8.7 km/h 81% 0.0 mm 0 W/m2
03:05 11.2 °C 8.1 °C 1025.3 hPa NNE 5.0 km/h 8.7 km/h 81% 0.0 mm 0 W/m2
03:10 11.0 °C 8.1 °C 1025.3 hPa North 1.1 km/h 7.2 km/h 82% 0.0 mm 0 W/m2
03:15 10.8 °C 8.1 °C 1025.3 hPa North 3.5 km/h 6.1 km/h 83% 0.0 mm 0 W/m2
03:20 10.8 °C 8.1 °C 1025.3 hPa NNE 1.1 km/h 11.1 km/h 83% 0.0 mm 0 W/m2
03:25 10.7 °C 7.9 °C 1025.3 hPa NNE 2.6 km/h 11.1 km/h 83% 0.0 mm 0 W/m2
03:30 10.5 °C 7.9 °C 1024.9 hPa North 1.1 km/h 5.0 km/h 84% 0.0 mm 0 W/m2
03:35 10.4 °C 7.8 °C 1025.3 hPa North 1.1 km/h 3.5 km/h 84% 0.0 mm 0 W/m2
03:40 10.3 °C 7.7 °C 1025.3 hPa Calm   3.5 km/h 84% 0.0 mm 0 W/m2
03:45 10.2 °C 7.6 °C 1025.3 hPa Calm   3.5 km/h 84% 0.0 mm 0 W/m2
03:50 9.9 °C 7.5 °C 1025.3 hPa Calm   1.1 km/h 85% 0.0 mm 0 W/m2
03:55 9.6 °C 7.2 °C 1024.9 hPa Calm   2.6 km/h 85% 0.0 mm 0 W/m2
04:00 9.4 °C 7.2 °C 1024.9 hPa Calm   2.6 km/h 86% 0.0 mm 0 W/m2
04:05 9.3 °C 7.1 °C 1025.3 hPa NE 1.1 km/h 2.6 km/h 86% 0.0 mm 0 W/m2
04:10 9.3 °C 7.2 °C 1025.3 hPa NE 1.1 km/h 2.6 km/h 87% 0.0 mm 0 W/m2
04:15 9.2 °C 7.3 °C 1024.9 hPa NE 1.1 km/h 3.5 km/h 88% 0.0 mm 0 W/m2
04:20 9.2 °C 7.5 °C 1024.9 hPa NE 1.1 km/h 3.5 km/h 89% 0.0 mm 0 W/m2
04:25 9.1 °C 7.4 °C 1024.9 hPa NE 2.6 km/h 3.5 km/h 89% 0.0 mm 0 W/m2
04:30 8.8 °C 7.3 °C 1024.9 hPa NE 1.1 km/h 3.5 km/h 90% 0.0 mm 0 W/m2
04:35 8.6 °C 7.2 °C 1024.9 hPa NE 2.6 km/h 3.5 km/h 91% 0.0 mm 0 W/m2
04:40 8.6 °C 7.2 °C 1025.3 hPa Calm   3.5 km/h 91% 0.0 mm 0 W/m2
04:45 8.4 °C 7.2 °C 1025.3 hPa NNE 1.1 km/h 3.5 km/h 92% 0.0 mm 0 W/m2
04:50 8.3 °C 7.1 °C 1025.3 hPa North 1.1 km/h 2.6 km/h 92% 0.0 mm 0 W/m2
04:55 8.2 °C 7.1 °C 1024.9 hPa North 1.1 km/h 3.5 km/h 93% 0.0 mm 0 W/m2
05:00 8.1 °C 7.1 °C 1025.3 hPa North 2.6 km/h 3.5 km/h 93% 0.0 mm 0 W/m2
05:05 8.2 °C 7.3 °C 1025.3 hPa North 2.6 km/h 5.0 km/h 94% 0.0 mm 0 W/m2
05:10 8.2 °C 7.4 °C 1025.3 hPa North 2.6 km/h 5.0 km/h 95% 0.0 mm 0 W/m2
05:16 8.2 °C 7.4 °C 1024.9 hPa North 1.1 km/h 6.1 km/h 95% 0.0 mm 0 W/m2
05:21 8.3 °C 7.6 °C 1024.9 hPa North 2.6 km/h 6.1 km/h 95% 0.0 mm 0 W/m2
05:26 8.4 °C 7.7 °C 1024.9 hPa North 3.5 km/h 5.0 km/h 95% 0.0 mm 0 W/m2
05:31 8.3 °C 7.6 °C 1024.9 hPa NNE 1.1 km/h 5.0 km/h 95% 0.0 mm 0 W/m2
05:36 8.5 °C 7.7 °C 1024.9 hPa NNE 2.6 km/h 5.0 km/h 95% 0.0 mm 0 W/m2
05:41 8.6 °C 7.8 °C 1024.9 hPa NNE 2.6 km/h 5.0 km/h 95% 0.0 mm 0 W/m2
05:46 9.0 °C 7.9 °C 1024.9 hPa NNE 2.6 km/h 6.1 km/h 93% 0.0 mm 0 W/m2
05:51 8.9 °C 7.8 °C 1024.9 hPa NNE 2.6 km/h 6.1 km/h 93% 0.0 mm 0 W/m2
05:56 8.8 °C 7.6 °C 1024.9 hPa NNE 2.6 km/h 5.0 km/h 92% 0.0 mm 0 W/m2
06:01 9.1 °C 7.7 °C 1024.9 hPa NE 1.1 km/h 5.0 km/h 91% 0.0 mm 0 W/m2
06:06 9.2 °C 7.8 °C 1024.6 hPa NE 2.6 km/h 3.5 km/h 91% 0.0 mm 0 W/m2
06:11 9.1 °C 7.6 °C 1024.6 hPa NE 1.1 km/h 3.5 km/h 90% 0.0 mm 0 W/m2
06:16 8.9 °C 7.5 °C 1024.6 hPa Calm   5.0 km/h 91% 0.0 mm 0 W/m2
06:21 8.7 °C 7.3 °C 1024.6 hPa Calm   5.0 km/h 91% 0.0 mm 0 W/m2
06:26 8.3 °C 6.8 °C 1024.9 hPa NNW 1.1 km/h 3.5 km/h 90% 0.0 mm 0 W/m2
06:31 8.2 °C 6.8 °C 1024.6 hPa Calm   3.5 km/h 91% 0.0 mm 0 W/m2
06:36 8.1 °C 6.7 °C 1024.6 hPa Calm   3.5 km/h 91% 0.0 mm 0 W/m2
06:41 8.0 °C 6.6 °C 1024.6 hPa Calm   1.1 km/h 91% 0.0 mm 0 W/m2
06:47 7.6 °C 6.4 °C 1024.6 hPa NE 1.1 km/h 2.6 km/h 92% 0.0 mm 0 W/m2
06:52 7.4 °C 6.3 °C 1024.6 hPa North 2.6 km/h 5.0 km/h 93% 0.0 mm 0 W/m2
06:57 7.4 °C 6.3 °C 1024.6 hPa NNE 2.6 km/h 5.0 km/h 93% 0.0 mm 0 W/m2
07:02 7.2 °C 6.3 °C 1024.6 hPa NNE 1.1 km/h 6.1 km/h 94% 0.0 mm 0 W/m2
07:07 7.2 °C 6.4 °C 1024.6 hPa NNE 1.1 km/h 6.1 km/h 95% 0.0 mm 0 W/m2
07:12 7.2 °C 6.6 °C 1024.6 hPa NNE 1.1 km/h 5.0 km/h 96% 0.0 mm 0 W/m2
07:17 7.2 °C 6.6 °C 1024.6 hPa NE 1.1 km/h 5.0 km/h 96% 0.0 mm 0 W/m2
07:22 7.3 °C 6.8 °C 1024.6 hPa NNE 1.1 km/h 3.5 km/h 97% 0.0 mm 0 W/m2
07:27 7.4 °C 6.9 °C 1024.6 hPa NE 1.1 km/h 3.5 km/h 97% 0.0 mm 0 W/m2
07:32 7.6 °C 7.2 °C 1024.3 hPa NE 1.1 km/h 3.5 km/h 97% 0.0 mm 0 W/m2
07:37 7.7 °C 7.3 °C 1024.3 hPa NNE 3.5 km/h 5.0 km/h 97% 0.0 mm 0 W/m2
07:42 7.7 °C 7.3 °C 1024.3 hPa North 2.6 km/h 5.0 km/h 97% 0.0 mm 0 W/m2
07:47 7.8 °C 7.3 °C 1024.3 hPa NNE 1.1 km/h 5.0 km/h 97% 0.0 mm 0 W/m2
07:52 7.9 °C 7.4 °C 1024.3 hPa NE 1.1 km/h 5.0 km/h 97% 0.0 mm 0 W/m2
07:57 7.9 °C 7.3 °C 1023.9 hPa NNE 1.1 km/h 5.0 km/h 96% 0.0 mm 0 W/m2
08:02 8.4 °C 7.8 °C 1023.9 hPa NNE 2.6 km/h 5.0 km/h 96% 0.0 mm 0 W/m2
08:07 8.5 °C 7.9 °C 1023.9 hPa NNE 2.6 km/h 6.1 km/h 96% 0.0 mm 0 W/m2
08:12 8.1 °C 7.2 °C 1023.6 hPa NNW 1.1 km/h 6.1 km/h 94% 0.0 mm 0 W/m2
08:17 7.8 °C 6.9 °C 1023.6 hPa NNW 1.1 km/h 5.0 km/h 94% 0.0 mm 0 W/m2
08:22 7.8 °C 6.9 °C 1023.6 hPa North 3.5 km/h 5.0 km/h 94% 0.0 mm 0 W/m2
08:27 7.4 °C 6.3 °C 1023.6 hPa NNW 2.6 km/h 5.0 km/h 93% 0.0 mm 0 W/m2
08:32 7.3 °C 6.4 °C 1023.2 hPa NNW 2.6 km/h 5.0 km/h 94% 0.0 mm 0 W/m2
08:37 7.2 °C 6.3 °C 1023.2 hPa North 1.1 km/h 3.5 km/h 94% 0.0 mm 0 W/m2
08:42 7.1 °C 6.3 °C 1023.2 hPa North 2.6 km/h 3.5 km/h 95% 0.0 mm 0 W/m2
08:47 7.1 °C 6.3 °C 1023.2 hPa North 2.6 km/h 5.0 km/h 95% 0.0 mm 0 W/m2
08:52 6.9 °C 6.3 °C 1023.2 hPa NNE 2.6 km/h 5.0 km/h 96% 0.0 mm 0 W/m2
08:57 6.7 °C 6.1 °C 1022.9 hPa NNW 5.0 km/h 6.1 km/h 96% 0.0 mm 0 W/m2
09:02 6.3 °C 5.7 °C 1022.9 hPa NW 5.0 km/h 6.1 km/h 96% 0.0 mm 0 W/m2
09:07 6.2 °C 5.8 °C 1022.9 hPa NW 3.5 km/h 6.1 km/h 97% 0.0 mm 0 W/m2
09:12 6.3 °C 5.8 °C 1022.6 hPa NW 2.6 km/h 7.2 km/h 97% 0.0 mm 0 W/m2
09:17 6.3 °C 6.0 °C 1022.6 hPa NNW 2.6 km/h 7.2 km/h 98% 0.0 mm 0 W/m2
09:22 6.2 °C 5.9 °C 1022.6 hPa NNW 1.1 km/h 5.0 km/h 98% 0.0 mm 0 W/m2
09:27 6.2 °C 5.9 °C 1022.6 hPa Calm   5.0 km/h 98% 0.0 mm 0 W/m2
09:32 6.1 °C 5.8 °C 1022.6 hPa Calm   2.6 km/h 98% 0.0 mm 0 W/m2
09:37 6.2 °C 5.9 °C 1022.2 hPa North 1.1 km/h 2.6 km/h 98% 0.0 mm 0 W/m2
09:42 6.3 °C 6.0 °C 1022.2 hPa North 1.1 km/h 2.6 km/h 98% 0.0 mm 0 W/m2
09:47 6.3 °C 6.0 °C 1022.2 hPa North 1.1 km/h 3.5 km/h 98% 0.0 mm 0 W/m2
09:52 5.9 °C 5.8 °C 1022.2 hPa North 2.6 km/h 3.5 km/h 99% 0.0 mm 0 W/m2
09:57 5.8 °C 5.7 °C 1022.2 hPa North 2.6 km/h 5.0 km/h 99% 0.0 mm 0 W/m2
10:02 6.0 °C 5.7 °C 1022.2 hPa North 2.6 km/h 5.0 km/h 98% 0.0 mm 0 W/m2
10:07 5.8 °C 5.7 °C 1022.2 hPa North 2.6 km/h 5.0 km/h 99% 0.0 mm 0 W/m2
10:12 5.7 °C 5.6 °C 1022.2 hPa North 2.6 km/h 3.5 km/h 99% 0.0 mm 0 W/m2
10:17 5.5 °C 5.3 °C 1021.9 hPa NNW 5.0 km/h 6.1 km/h 99% 0.0 mm 0 W/m2
10:22 5.2 °C 5.1 °C 1022.2 hPa NW 3.5 km/h 6.1 km/h 99% 0.0 mm 0 W/m2
10:27 5.1 °C 4.9 °C 1022.2 hPa NNW 3.5 km/h 6.1 km/h 99% 0.0 mm 0 W/m2
10:28 5.0 °C 4.8 °C 1022.2 hPa NNW 3.5 km/h 6.1 km/h 99% 0.0 mm 0 W/m2
10:33 5.0 °C 4.8 °C 1022.2 hPa North 3.5 km/h 6.1 km/h 99% 0.0 mm 0 W/m2
10:38 4.9 °C 4.8 °C 1022.2 hPa North 3.5 km/h 6.1 km/h 99% 0.0 mm 0 W/m2
10:43 4.8 °C 4.7 °C 1022.2 hPa North 2.6 km/h 6.1 km/h 99% 0.0 mm 0 W/m2
10:48 4.8 °C 4.7 °C 1022.2 hPa NNE 1.1 km/h 5.0 km/h 99% 0.0 mm 0 W/m2
10:53 4.8 °C 4.7 °C 1021.9 hPa Calm   5.0 km/h 99% 0.0 mm 0 W/m2
10:58 4.7 °C 4.6 °C 1021.6 hPa North 1.1 km/h 2.6 km/h 99% 0.0 mm 0 W/m2
11:03 4.7 °C 4.6 °C 1021.6 hPa North 2.6 km/h 5.0 km/h 99% 0.0 mm 0 W/m2
11:08 4.6 °C 4.4 °C 1021.6 hPa North 3.5 km/h 5.0 km/h 99% 0.0 mm 0 W/m2
11:13 4.5 °C 4.3 °C 1021.6 hPa North 2.6 km/h 5.0 km/h 99% 0.0 mm 0 W/m2
11:18 4.4 °C 4.3 °C 1021.6 hPa North 1.1 km/h 5.0 km/h 99% 0.0 mm 0 W/m2
11:23 4.3 °C 4.2 °C 1021.6 hPa North 3.5 km/h 5.0 km/h 99% 0.0 mm 0 W/m2
11:28 4.3 °C 4.2 °C 1021.2 hPa North 2.6 km/h 5.0 km/h 99% 0.0 mm 0 W/m2
11:33 4.2 °C 4.1 °C 1021.2 hPa North 2.6 km/h 6.1 km/h 99% 0.0 mm 0 W/m2
11:38 4.2 °C 4.1 °C 1021.2 hPa NNW 1.1 km/h 6.1 km/h 99% 0.0 mm 0 W/m2
11:43 4.1 °C 3.9 °C 1021.2 hPa North 1.1 km/h 5.0 km/h 99% 0.0 mm 0 W/m2
11:48 4.0 °C 3.8 °C 1020.9 hPa Calm   3.5 km/h 99% 0.0 mm 0 W/m2
11:53 4.0 °C 3.8 °C 1020.9 hPa North 1.1 km/h 3.5 km/h 99% 0.0 mm 0 W/m2
11:58 4.0 °C 3.8 °C 1020.9 hPa Calm   2.6 km/h 99% 0.0 mm 0 W/m2
12:03 3.9 °C 3.8 °C 1020.5 hPa North 1.1 km/h 2.6 km/h 99% 0.0 mm 0 W/m2
12:08 3.9 °C 3.8 °C 1020.5 hPa NNW 2.6 km/h 5.0 km/h 99% 0.0 mm 0 W/m2
12:13 3.9 °C 3.8 °C 1020.5 hPa NNW 1.1 km/h 5.0 km/h 99% 0.0 mm 0 W/m2
12:18 3.8 °C 3.7 °C 1020.5 hPa North 1.1 km/h 5.0 km/h 99% 0.0 mm 0 W/m2
12:23 3.7 °C 3.6 °C 1020.2 hPa North 3.5 km/h 5.0 km/h 99% 0.0 mm 0 W/m2
12:28 3.8 °C 3.7 °C 1020.2 hPa NNW 5.0 km/h 7.2 km/h 99% 0.0 mm 0 W/m2
12:33 3.9 °C 3.8 °C 1020.2 hPa NNW 5.0 km/h 7.2 km/h 99% 0.0 mm 0 W/m2
12:38 3.9 °C 3.8 °C 1020.2 hPa NNW 5.0 km/h 7.2 km/h 99% 0.0 mm 0 W/m2
12:43 3.9 °C 3.8 °C 1020.2 hPa North 3.5 km/h 7.2 km/h 99% 0.0 mm 0 W/m2
12:48 3.9 °C 3.8 °C 1020.2 hPa North 2.6 km/h 7.2 km/h 99% 0.0 mm 0 W/m2
12:53 3.9 °C 3.8 °C 1019.9 hPa NNW 2.6 km/h 5.0 km/h 99% 0.0 mm 0 W/m2
12:58 3.9 °C 3.8 °C 1019.9 hPa North 2.6 km/h 6.1 km/h 99% 0.0 mm 0 W/m2
13:03 3.9 °C 3.8 °C 1019.9 hPa North 2.6 km/h 7.2 km/h 99% 0.0 mm 0 W/m2
13:08 3.9 °C 3.8 °C 1019.9 hPa North 2.6 km/h 7.2 km/h 99% 0.0 mm 0 W/m2
13:13 3.9 °C 3.8 °C 1019.5 hPa North 2.6 km/h 7.2 km/h 99% 0.0 mm 0 W/m2
13:18 3.9 °C 3.8 °C 1019.5 hPa NNW 2.6 km/h 7.2 km/h 99% 0.0 mm 0 W/m2
13:23 3.8 °C 3.7 °C 1019.5 hPa NNW 3.5 km/h 6.1 km/h 99% 0.0 mm 0 W/m2
13:28 3.8 °C 3.7 °C 1019.5 hPa North 2.6 km/h 6.1 km/h 99% 0.0 mm 0 W/m2
13:33 3.9 °C 3.8 °C 1019.5 hPa North 2.6 km/h 6.1 km/h 99% 0.0 mm 0 W/m2
13:38 3.9 °C 3.8 °C 1019.5 hPa North 3.5 km/h 7.2 km/h 99% 0.0 mm 0 W/m2
13:43 4.0 °C 3.8 °C 1019.2 hPa North 3.5 km/h 7.2 km/h 99% 0.0 mm 0 W/m2
13:48 4.1 °C 3.9 °C 1019.2 hPa North 3.5 km/h 7.2 km/h 99% 0.0 mm 0 W/m2
13:53 4.2 °C 4.1 °C 1019.2 hPa NNW 2.6 km/h 6.1 km/h 99% 0.0 mm 0 W/m2
13:58 4.3 °C 4.2 °C 1019.2 hPa NNW 3.5 km/h 7.2 km/h 99% 0.0 mm 0 W/m2
14:03 4.5 °C 4.3 °C 1019.2 hPa NNW 5.0 km/h 7.2 km/h 99% 0.0 mm 0 W/m2
14:08 4.5 °C 4.3 °C 1019.5 hPa NNW 6.1 km/h 8.7 km/h 99% 0.0 mm 0 W/m2
14:13 4.6 °C 4.4 °C 1019.2 hPa NNW 5.0 km/h 8.7 km/h 99% 0.0 mm 0 W/m2
14:18 4.6 °C 4.4 °C 1019.2 hPa NNW 3.5 km/h 8.7 km/h 99% 0.0 mm 0 W/m2
14:23 4.5 °C 4.3 °C 1018.8 hPa NNW 5.0 km/h 7.2 km/h 99% 0.0 mm 0 W/m2
14:28 4.5 °C 4.3 °C 1019.2 hPa NNW 6.1 km/h 9.7 km/h 99% 0.0 mm 0 W/m2
14:33 4.5 °C 4.3 °C 1019.2 hPa NNW 2.6 km/h 9.7 km/h 99% 0.0 mm 0 W/m2
14:38 4.5 °C 4.3 °C 1018.8 hPa NNW 2.6 km/h 9.7 km/h 99% 0.0 mm 0 W/m2
14:43 4.5 °C 4.3 °C 1018.8 hPa North 2.6 km/h 6.1 km/h 99% 0.0 mm 0 W/m2
14:48 4.5 °C 4.3 °C 1018.8 hPa NNW 2.6 km/h 5.0 km/h 99% 0.0 mm 0 W/m2
14:53 4.5 °C 4.3 °C 1018.8 hPa North 5.0 km/h 6.1 km/h 99% 0.0 mm 0 W/m2
14:58 4.6 °C 4.4 °C 1018.8 hPa NNW 3.5 km/h 7.2 km/h 99% 0.0 mm 0 W/m2
15:03 4.6 °C 4.4 °C 1019.2 hPa NNW 3.5 km/h 7.2 km/h 99% 0.0 mm 0 W/m2
15:04 4.6 °C 4.4 °C 1018.8 hPa NNW 2.6 km/h 7.2 km/h 99% 0.0 mm 0 W/m2
15:09 4.7 °C 4.6 °C 1018.8 hPa North 2.6 km/h 7.2 km/h 99% 0.0 mm 0 W/m2
15:14 4.8 °C 4.7 °C 1018.8 hPa NNW 2.6 km/h 8.7 km/h 99% 0.0 mm 0 W/m2
15:19 4.8 °C 4.7 °C 1018.8 hPa NNW 5.0 km/h 8.7 km/h 99% 0.0 mm 0 W/m2
15:24 4.9 °C 4.8 °C 1018.5 hPa NW 3.5 km/h 8.7 km/h 99% 0.0 mm 0 W/m2
15:29 5.0 °C 4.8 °C 1018.8 hPa NNW 5.0 km/h 8.7 km/h 99% 0.0 mm 0 W/m2
15:34 5.0 °C 4.8 °C 1018.8 hPa NW 5.0 km/h 7.2 km/h 99% 0.0 mm 0 W/m2
15:39 5.0 °C 4.8 °C 1018.8 hPa Calm   7.2 km/h 99% 0.0 mm 0 W/m2
15:44 5.0 °C 4.8 °C 1018.8 hPa North 2.6 km/h 7.2 km/h 99% 0.0 mm 0 W/m2
15:49 5.1 °C 4.9 °C 1018.8 hPa North 5.0 km/h 6.1 km/h 99% 0.0 mm 0 W/m2
15:54 5.2 °C 5.1 °C 1018.5 hPa NW 2.6 km/h 6.1 km/h 99% 0.0 mm 1 W/m2
15:59 5.2 °C 5.1 °C 1018.5 hPa NW 2.6 km/h 6.1 km/h 99% 0.0 mm 2 W/m2
16:05 5.2 °C 5.1 °C 1018.5 hPa NNW 3.5 km/h 6.1 km/h 99% 0.0 mm 4 W/m2
16:10 5.3 °C 5.2 °C 1018.5 hPa North 2.6 km/h 6.1 km/h 99% 0.0 mm 6 W/m2
16:15 5.3 °C 5.2 °C 1018.8 hPa North 1.1 km/h 5.0 km/h 99% 0.0 mm 10 W/m2
16:20 5.4 °C 5.3 °C 1018.8 hPa North 2.6 km/h 5.0 km/h 99% 0.0 mm 59 W/m2
16:25 5.5 °C 5.3 °C 1018.8 hPa NNW 2.6 km/h 3.5 km/h 99% 0.0 mm 33 W/m2
16:30 5.6 °C 5.4 °C 1018.5 hPa North 2.6 km/h 6.1 km/h 99% 0.0 mm 32 W/m2
16:35 5.8 °C 5.7 °C 1018.8 hPa NNE 2.6 km/h 6.1 km/h 99% 0.0 mm 32 W/m2
16:40 5.9 °C 5.8 °C 1018.8 hPa NNE 2.6 km/h 6.1 km/h 99% 0.0 mm 42 W/m2
16:45 6.0 °C 5.7 °C 1018.5 hPa NNE 1.1 km/h 6.1 km/h 98% 0.0 mm 39 W/m2
16:50 6.1 °C 5.8 °C 1018.5 hPa Calm   5.0 km/h 98% 0.0 mm 40 W/m2
16:55 6.2 °C 5.9 °C 1018.8 hPa NNW 2.6 km/h 3.5 km/h 98% 0.0 mm 46 W/m2
17:00 6.3 °C 6.0 °C 1018.5 hPa NNW 3.5 km/h 6.1 km/h 98% 0.0 mm 51 W/m2
17:05 6.4 °C 6.1 °C 1018.5 hPa NNW 1.1 km/h 6.1 km/h 98% 0.0 mm 49 W/m2
17:10 6.6 °C 6.3 °C 1018.5 hPa North 2.6 km/h 6.1 km/h 98% 0.0 mm 51 W/m2
17:15 6.7 °C 6.4 °C 1018.5 hPa North 2.6 km/h 5.0 km/h 98% 0.0 mm 52 W/m2
17:20 6.8 °C 6.5 °C 1018.5 hPa North 3.5 km/h 6.1 km/h 98% 0.0 mm 59 W/m2
17:25 6.9 °C 6.6 °C 1018.5 hPa NNW 3.5 km/h 6.1 km/h 98% 0.0 mm 60 W/m2
17:30 7.2 °C 6.8 °C 1018.5 hPa Calm   7.2 km/h 97% 0.0 mm 65 W/m2
17:35 7.4 °C 6.9 °C 1018.5 hPa NNW 3.5 km/h 7.2 km/h 97% 0.0 mm 66 W/m2
17:40 7.4 °C 6.9 °C 1018.8 hPa NNW 3.5 km/h 5.0 km/h 97% 0.0 mm 63 W/m2
17:45 7.5 °C 7.1 °C 1018.5 hPa North 2.6 km/h 5.0 km/h 97% 0.0 mm 70 W/m2
17:50 7.8 °C 7.3 °C 1018.8 hPa NNW 2.6 km/h 5.0 km/h 97% 0.0 mm 69 W/m2
17:55 7.8 °C 7.3 °C 1018.8 hPa NNW 2.6 km/h 5.0 km/h 97% 0.0 mm 61 W/m2
18:00 7.9 °C 7.4 °C 1018.5 hPa NNW 1.1 km/h 5.0 km/h 97% 0.0 mm 70 W/m2
18:05 8.0 °C 7.8 °C 1018.5 hPa NNW 2.6 km/h 5.0 km/h 99% 0.0 mm 77 W/m2
18:10 8.1 °C 7.9 °C 1018.5 hPa North 1.1 km/h 5.0 km/h 99% 0.0 mm 73 W/m2
18:15 8.2 °C 8.1 °C 1018.8 hPa NNW 1.1 km/h 3.5 km/h 99% 0.0 mm 57 W/m2
18:20 8.2 °C 8.1 °C 1018.8 hPa NW 2.6 km/h 5.0 km/h 99% 0.0 mm 53 W/m2
18:25 8.2 °C 8.1 °C 1018.8 hPa NW 3.5 km/h 6.1 km/h 99% 0.0 mm 55 W/m2
18:30 8.4 °C 8.3 °C 1018.8 hPa NNW 1.1 km/h 6.1 km/h 99% 0.0 mm 69 W/m2
18:35 8.5 °C 8.3 °C 1018.8 hPa NNW 1.1 km/h 6.1 km/h 99% 0.0 mm 75 W/m2
18:40 8.8 °C 8.7 °C 1018.8 hPa NNE 2.6 km/h 5.0 km/h 99% 0.0 mm 67 W/m2
18:45 9.0 °C 8.6 °C 1018.8 hPa North 2.6 km/h 6.1 km/h 97% 0.0 mm 61 W/m2
18:50 9.1 °C 8.7 °C 1018.5 hPa NNW 2.6 km/h 6.1 km/h 97% 0.0 mm 60 W/m2
18:55 9.2 °C 8.8 °C 1018.2 hPa Calm   5.0 km/h 97% 0.0 mm 66 W/m2
19:00 9.3 °C 8.8 °C 1018.5 hPa North 3.5 km/h 5.0 km/h 97% 0.0 mm 62 W/m2
19:06 9.4 °C 8.8 °C 1018.2 hPa NNW 2.6 km/h 6.1 km/h 96% 0.0 mm 49 W/m2
19:11 9.3 °C 8.7 °C 1018.2 hPa NW 5.0 km/h 7.2 km/h 96% 0.0 mm 51 W/m2
19:16 9.2 °C 8.6 °C 1018.2 hPa NW 7.2 km/h 8.7 km/h 96% 0.0 mm 56 W/m2
19:21 9.1 °C 8.5 °C 1018.2 hPa NNW 2.6 km/h 8.7 km/h 96% 0.0 mm 63 W/m2
19:26 9.2 °C 8.6 °C 1018.2 hPa NNW 3.5 km/h 8.7 km/h 96% 0.0 mm 56 W/m2
19:31 9.2 °C 8.6 °C 1017.8 hPa NNW 5.0 km/h 7.2 km/h 96% 0.0 mm 50 W/m2
19:36 9.2 °C 8.6 °C 1017.8 hPa NNW 3.5 km/h 6.1 km/h 96% 0.0 mm 48 W/m2
19:41 9.2 °C 8.6 °C 1017.8 hPa NNW 3.5 km/h 6.1 km/h 96% 0.0 mm 49 W/m2
19:46 9.2 °C 8.6 °C 1017.8 hPa NNW 3.5 km/h 7.2 km/h 96% 0.0 mm 47 W/m2
19:51 9.2 °C 8.6 °C 1017.8 hPa NNW 3.5 km/h 7.2 km/h 96% 0.0 mm 53 W/m2
19:56 9.3 °C 8.7 °C 1017.8 hPa NNW 1.1 km/h 6.1 km/h 96% 0.0 mm 55 W/m2
20:01 9.4 °C 8.9 °C 1017.5 hPa NNE 2.6 km/h 6.1 km/h 97% 0.0 mm 59 W/m2
20:06 9.5 °C 9.1 °C 1017.5 hPa North 6.1 km/h 8.7 km/h 97% 0.0 mm 59 W/m2
20:11 9.5 °C 8.9 °C 1017.5 hPa NNW 5.0 km/h 8.7 km/h 96% 0.0 mm 61 W/m2
20:16 9.5 °C 8.9 °C 1017.5 hPa NNW 7.2 km/h 8.7 km/h 96% 0.0 mm 59 W/m2
20:21 9.5 °C 8.9 °C 1017.2 hPa NNW 2.6 km/h 8.7 km/h 96% 0.0 mm 71 W/m2
20:26 9.6 °C 9.0 °C 1017.2 hPa North 3.5 km/h 8.7 km/h 96% 0.0 mm 69 W/m2
20:31 9.6 °C 9.0 °C 1017.2 hPa North 1.1 km/h 7.2 km/h 96% 0.0 mm 62 W/m2
20:36 9.8 °C 9.2 °C 1016.8 hPa North 1.1 km/h 6.1 km/h 96% 0.0 mm 62 W/m2
20:41 9.9 °C 9.3 °C 1016.8 hPa NNW 1.1 km/h 5.0 km/h 96% 0.0 mm 55 W/m2
20:46 10.0 °C 9.2 °C 1016.8 hPa NNW 1.1 km/h 5.0 km/h 95% 0.0 mm 50 W/m2
20:51 10.0 °C 9.1 °C 1016.8 hPa North 2.6 km/h 5.0 km/h 94% 0.0 mm 54 W/m2
20:56 10.1 °C 9.2 °C 1016.8 hPa North 1.1 km/h 3.5 km/h 94% 0.0 mm 47 W/m2
21:01 10.1 °C 9.2 °C 1016.5 hPa North 2.6 km/h 5.0 km/h 94% 0.0 mm 47 W/m2
21:06 10.1 °C 9.2 °C 1016.5 hPa NNW 5.0 km/h 6.1 km/h 94% 0.0 mm 55 W/m2
21:11 10.2 °C 9.3 °C 1016.5 hPa North 3.5 km/h 6.1 km/h 94% 0.0 mm 43 W/m2
21:16 10.2 °C 9.3 °C 1016.5 hPa NNW 2.6 km/h 6.1 km/h 94% 0.0 mm 42 W/m2
21:21 10.2 °C 9.3 °C 1016.1 hPa NW 2.6 km/h 6.1 km/h 94% 0.0 mm 41 W/m2
21:26 10.1 °C 9.2 °C 1016.1 hPa NW 3.5 km/h 7.2 km/h 94% 0.0 mm 40 W/m2
21:31 10.0 °C 9.1 °C 1016.1 hPa NW 2.6 km/h 7.2 km/h 94% 0.0 mm 40 W/m2
21:36 10.0 °C 9.1 °C 1016.1 hPa NW 5.0 km/h 7.2 km/h 94% 0.0 mm 39 W/m2
21:41 9.9 °C 9.3 °C 1016.1 hPa NNW 2.6 km/h 7.2 km/h 96% 0.0 mm 44 W/m2
21:46 9.9 °C 9.3 °C 1016.1 hPa NNW 6.1 km/h 7.2 km/h 96% 0.0 mm 45 W/m2
21:51 9.9 °C 9.3 °C 1016.1 hPa NNW 2.6 km/h 7.2 km/h 96% 0.0 mm 36 W/m2
21:56 10.0 °C 9.4 °C 1016.1 hPa NNW 3.5 km/h 7.2 km/h 96% 0.0 mm 36 W/m2
22:01 10.0 °C 9.4 °C 1016.1 hPa NNW 5.0 km/h 6.1 km/h 96% 0.0 mm 36 W/m2
22:06 10.0 °C 9.4 °C 1016.1 hPa North 2.6 km/h 6.1 km/h 96% 0.0 mm 33 W/m2
22:11 10.0 °C 9.4 °C 1016.1 hPa North 3.5 km/h 5.0 km/h 96% 0.0 mm 33 W/m2
22:16 10.0 °C 9.4 °C 1015.8 hPa NNW 1.1 km/h 5.0 km/h 96% 0.3 mm 26 W/m2
22:21 10.0 °C 9.4 °C 1015.8 hPa Calm   5.0 km/h 96% 0.3 mm 24 W/m2
22:26 10.0 °C 9.4 °C 1015.5 hPa NW 1.1 km/h 3.5 km/h 96% 0.3 mm 29 W/m2
22:31 10.0 °C 9.4 °C 1015.8 hPa WNW 2.6 km/h 3.5 km/h 96% 0.3 mm 44 W/m2
22:36 10.0 °C 9.4 °C 1015.5 hPa NW 2.6 km/h 3.5 km/h 96% 0.3 mm 57 W/m2
22:41 10.0 °C 9.6 °C 1015.5 hPa Calm   3.5 km/h 97% 0.3 mm 49 W/m2
22:46 10.0 °C 9.6 °C 1015.5 hPa Calm   3.5 km/h 97% 0.3 mm 50 W/m2
22:51 10.1 °C 9.7 °C 1015.5 hPa North 1.1 km/h 3.5 km/h 97% 0.3 mm 52 W/m2
22:56 10.1 °C 9.8 °C 1015.5 hPa Calm   5.0 km/h 98% 0.3 mm 54 W/m2
23:01 10.2 °C 9.9 °C 1015.5 hPa North 1.1 km/h 5.0 km/h 98% 0.3 mm 41 W/m2
23:06 10.2 °C 9.9 °C 1015.5 hPa NNW 2.6 km/h 5.0 km/h 98% 0.3 mm 44 W/m2
23:11 10.2 °C 10.1 °C 1015.5 hPa Calm   5.0 km/h 99% 0.3 mm 49 W/m2
23:16 10.2 °C 10.1 °C 1014.8 hPa NNW 1.1 km/h 3.5 km/h 99% 0.0 mm 48 W/m2
23:21 10.3 °C 10.2 °C 1015.1 hPa NNW 2.6 km/h 3.5 km/h 99% 0.0 mm 40 W/m2
23:26 10.2 °C 10.1 °C 1014.8 hPa NW 2.6 km/h 6.1 km/h 99% 0.0 mm 31 W/m2
23:31 10.2 °C 10.1 °C 1015.1 hPa NW 1.1 km/h 6.1 km/h 99% 0.0 mm 28 W/m2
23:36 10.2 °C 10.1 °C 1015.1 hPa North 1.1 km/h 3.5 km/h 99% 0.0 mm 26 W/m2
23:41 10.1 °C 9.9 °C 1015.1 hPa North 1.1 km/h 5.0 km/h 99% 0.0 mm 21 W/m2
23:46 10.1 °C 9.9 °C 1015.1 hPa North 2.6 km/h 5.0 km/h 99% 0.0 mm 18 W/m2
23:51 10.1 °C 9.9 °C 1014.8 hPa North 2.6 km/h 3.5 km/h 99% 0.0 mm 17 W/m2
23:56 10.1 °C 9.9 °C 1014.8 hPa NNW 2.6 km/h 3.5 km/h 99% 0.0 mm 12 W/m2
Northern Hawkes Bay. New Zealand Historic Data
Compliments of Weather Underground - 2 mb